Terminal Aerodrome Forecast
Issued by NWS Wakefield, VA

Home | Current Version | Previous Version | Text Only | Print | Product List | Glossary On
Versions: 1 2 3 4 5 6 7 8 9 10 11 12 13 14 15
000
FTUS41 KAKQ 100600 AAA
TAFORF
TAF AMD
KORF 100637Z 1007/1106 21006KT P6SM BKN100
      TEMPO 1007/1008 3SM -TSRA OVC025CB
     FM101400 20009KT P6SM SCT040 BKN150
     FM101900 22007KT P6SM OVC040=

USA.gov is the U.S. government's official web portal to all federal, state and local government web resources and services.